ADDS METAR Data INFO
IDs: Format: Raw Decoded Include TAF

Data at: 0441 UTC 28 Jul 2017

K6R3 280435Z AUTO 18004KT 7SM CLR 26/24 A2997 RMK AO2 T02600238
K6R3 280415Z AUTO 17003KT 10SM CLR 27/24 A2997 RMK AO2 T02650240
K6R3 280355Z AUTO 18004KT 10SM CLR 27/24 A2996 RMK AO2 T02670240
K6R3 280335Z AUTO 18005KT 10SM CLR 27/24 A2996 RMK AO2 T02700242
K6R3 280315Z AUTO 19005KT 7SM CLR 27/24 A2996 RMK AO2 T02720244
K6R3 280255Z AUTO 18005KT 10SM CLR 28/24 A2996 RMK AO2 T02760244
K6R3 280235Z AUTO 17004KT 10SM CLR 28/25 A2995 RMK AO2 T02760245
K6R3 280215Z AUTO 18005KT 10SM CLR 28/25 A2995 RMK AO2 T02810245
K6R3 280155Z AUTO 17005KT 10SM CLR 29/25 A2996 RMK AO2 T02860245
K6R3 280135Z AUTO 16003KT 7SM CLR 29/25 A2996 RMK AO2 T02930245
K6R3 280115Z AUTO 16004KT 7SM CLR 30/25 A2995 RMK AO2 T03000245
K6R3 280055Z AUTO 17003KT 7SM CLR 31/25 A2995 RMK AO2 T03100245
K6R3 280035Z AUTO 17004KT 10SM CLR 32/24 A2995 RMK AO2 T03200243
K6R3 280015Z AUTO 17008KT 7SM CLR 33/24 A2995 RMK AO2 T03280240
K6R3 272355Z AUTO 17004KT 7SM CLR 34/23 A2995 RMK AO2 T03390234 10355 20328
K6R3 272335Z AUTO 17007KT 10SM CLR 35/23 A2996 RMK AO2 T03460227
K6R3 272310Z AUTO 15003KT 7SM SCT055 35/22 A2997 RMK AO2 T03480216
K6R3 272255Z AUTO 14003KT 10SM CLR 35/22 A2996 RMK AO2 T03500217
K6R3 272235Z AUTO 16003KT 10SM SCT055 35/22 A2997 RMK AO2 T03510217
K6R3 272215Z AUTO 17006KT 7SM SCT055 SCT065 35/23 A2998 RMK AO2 T03540225
K6R3 272155Z AUTO 17005KT 7SM SCT065 SCT070 35/23 A2998 RMK AO2 T03530226
K6R3 272135Z AUTO 19007KT 10SM BKN050 BKN075 35/22 A2999 RMK AO2 T03520224
K6R3 272115Z AUTO 00000KT 7SM SCT050 34/22 A3000 RMK AO2 T03370218
K6R3 272055Z AUTO 23005KT 7SM SCT060 SCT070 BKN080 35/23 A3000 RMK AO2 T03500230
K6R3 272035Z AUTO 16004KT 10SM SCT050 SCT070 BKN080 35/23 A3001 RMK AO2 T03470229
K6R3 272015Z AUTO 18006KT 7SM BKN050 34/23 A3002 RMK AO2 T03400225
K6R3 271955Z AUTO 23004KT 7SM BKN050 34/22 A3003 RMK AO2 T03440223
K6R3 271935Z AUTO 30003KT 7SM SCT050 35/22 A3003 RMK AO2 T03530217
K6R3 271915Z AUTO 25006KT 10SM SCT050 35/21 A3004 RMK AO2 T03470210
K6R3 271855Z AUTO 12003KT 7SM CLR 35/21 A3005 RMK AO2 T03450213
K6R3 271835Z AUTO 28003KT 10SM SCT048 34/21 A3005 RMK AO2 T03440212
K6R3 271815Z AUTO 00000KT 10SM SCT044 34/21 A3006 RMK AO2 T03370213
K6R3 271755Z AUTO 23005KT 7SM SCT042 SCT049 34/23 A3007 RMK AO2 T03360228 10336 20222
K6R3 271735Z AUTO 00000KT 7SM BKN040 33/23 A3008 RMK AO2 T03320231
K6R3 271715Z AUTO 22005KT 7SM BKN040 33/23 A3009 RMK AO2 T03260232
K6R3 271655Z AUTO 00000KT 7SM BKN035 BKN044 BKN050 33/23 A3009 RMK AO2 T03280234
K6R3 271635Z AUTO 20004KT 7SM BKN033 BKN042 32/23 A3010 RMK AO2 T03190232
K6R3 271615Z AUTO 19006KT 7SM BKN031 BKN038 32/24 A3010 RMK AO2 T03210236
K6R3 271555Z AUTO 21006KT 10SM BKN030 BKN038 31/24 A3009 RMK AO2 T03140241
K6R3 271535Z AUTO 20004KT 10SM SCT026 31/24 A3009 RMK AO2 T03140238
K6R3 271515Z AUTO 21005KT 7SM SCT022 31/24 A3008 RMK AO2 T03100243
K6R3 271455Z AUTO 24004KT 7SM SCT018 30/25 A3008 RMK AO2 T03020247
K6R3 271435Z AUTO 20006KT 7SM SCT016 30/25 A3007 RMK AO2 T02970253
K6R3 271415Z AUTO 21005KT 10SM CLR 29/25 A3007 RMK AO2 T02870252
K6R3 271355Z AUTO 00000KT 7SM CLR 28/25 A3008 RMK AO2 T02760248
K6R3 271335Z AUTO 00000KT 5SM BR CLR 26/24 A3007 RMK AO2 T02610243
K6R3 271315Z AUTO 00000KT 4SM BR SCT018 25/24 A3007 RMK AO2 T02490239
K6R3 271255Z AUTO 00000KT 5SM BR SCT018 24/23 A3007 RMK AO2 T02400233
K6R3 271235Z AUTO 00000KT 4SM BR SCT018 23/22 A3007 RMK AO2 T02300224
K6R3 271215Z AUTO 00000KT 4SM BR SCT018 23/22 A3007 RMK AO2 T02250218
K6R3 271155Z AUTO 00000KT 4SM BR CLR 22/22 A3006 RMK AO2 T02230216 10245 20220
K6R3 271135Z AUTO 00000KT 7SM SCT018 22/22 A3005 RMK AO2 T02210215
K6R3 271115Z AUTO 00000KT 5SM BR CLR 22/22 A3005 RMK AO2 T02240217
K6R3 271055Z AUTO 00000KT 7SM CLR 23/22 A3005 RMK AO2 T02250217
K6R3 271035Z AUTO 00000KT 7SM CLR 23/22 A3004 RMK AO2 T02270220
K6R3 271015Z AUTO 00000KT 5SM BR CLR 23/22 A3004 RMK AO2 T02250218
K6R3 270955Z AUTO 00000KT 7SM CLR 23/22 A3004 RMK AO2 T02260220
K6R3 270935Z AUTO 00000KT 7SM CLR 23/22 A3005 RMK AO2 T02280220
K6R3 270915Z AUTO 00000KT 7SM CLR 23/22 A3005 RMK AO2 T02300221
K6R3 270855Z AUTO 00000KT 7SM CLR 23/22 A3005 RMK AO2 T02320224
K6R3 270835Z AUTO 00000KT 7SM CLR 23/22 A3005 RMK AO2 T02300222
K6R3 270815Z AUTO 00000KT 7SM CLR 23/22 A3006 RMK AO2 T02310224
K6R3 270755Z AUTO 00000KT 7SM CLR 24/23 A3006 RMK AO2 T02350225
K6R3 270735Z AUTO 00000KT 7SM CLR 24/23 A3006 RMK AO2 T02350225
K6R3 270715Z AUTO 00000KT 7SM CLR 24/23 A3006 RMK AO2 T02360226
K6R3 270655Z AUTO 00000KT 7SM CLR 24/23 A3006 RMK AO2 T02390227
K6R3 270635Z AUTO 00000KT 7SM CLR 24/23 A3005 RMK AO2 T02420230
K6R3 270615Z AUTO 00000KT 7SM CLR 24/23 A3006 RMK AO2 T02420231
K6R3 270555Z AUTO 00000KT 7SM CLR 25/23 A3007 RMK AO2 T02450232 10284 20245 403610235
K6R3 270535Z AUTO 15003KT 10SM CLR 25/23 A3007 RMK AO2 T02450233
K6R3 270515Z AUTO 00000KT 10SM CLR 25/24 A3006 RMK AO2 T02500235
K6R3 270455Z AUTO 00000KT 7SM CLR 25/24 A3007 RMK AO2 T02520236
K6R3 270435Z AUTO 00000KT 10SM CLR 25/24 A3007 RMK AO2 T02540237
K6R3 270415Z AUTO 00000KT 10SM CLR 26/24 A3007 RMK AO2 T02570239
K6R3 270355Z AUTO 00000KT 10SM CLR 26/24 A3007 RMK AO2 T02600240
K6R3 270335Z AUTO 16003KT 10SM CLR 26/24 A3006 RMK AO2 T02610239
K6R3 270315Z AUTO 16004KT 10SM CLR 26/24 A3005 RMK AO2 T02630238
K6R3 270255Z AUTO 16004KT 7SM CLR 27/24 A3005 RMK AO2 T02670238
K6R3 270235Z AUTO 16004KT 10SM CLR 27/24 A3006 RMK AO2 T02700237
K6R3 270215Z AUTO 17004KT 10SM CLR 27/24 A3005 RMK AO2 T02710235
K6R3 270155Z AUTO 15003KT 10SM CLR 27/24 A3005 RMK AO2 T02730235
K6R3 270135Z AUTO 16003KT 10SM CLR 27/24 A3005 RMK AO2 T02740236
K6R3 270115Z AUTO 00000KT 10SM CLR 28/24 A3005 RMK AO2 T02750238
K6R3 270055Z AUTO 00000KT 10SM CLR 28/24 A3005 RMK AO2 T02780240
K6R3 270035Z AUTO 00000KT 7SM CLR 28/24 A3005 RMK AO2 T02750237
K6R3 270015Z AUTO 00000KT 7SM CLR 28/24 A3005 RMK AO2 T02780236
K6R3 262355Z AUTO 00000KT 10SM CLR 28/23 A3004 RMK AO2 LTG DSNT W T02840228 10361 20283
K6R3 262335Z AUTO 00000KT 10SM CLR 29/22 A3004 RMK AO2 T02850224
K6R3 262315Z AUTO 00000KT 10SM CLR 29/22 A3005 RMK AO2 LTG DSNT W T02850222
K6R3 262255Z AUTO 00000KT 10SM VCTS CLR 29/22 A3005 RMK AO2 LTG DSNT NE AND E T02850222
K6R3 262235Z AUTO 12004KT 7SM VCTS CLR 30/22 A3005 RMK AO2 LTG DSNT N THRU SE T02950222
K6R3 262215Z AUTO 18006KT 7SM -TSRA SCT048 SCT050 30/22 A3005 RMK AO2 LTG DSNT NE THRU SE T03000215
K6R3 262155Z AUTO 19017G22KT 10SM VCTS BKN050 BKN060 34/23 A3005 RMK AO2 LTG DSNT ALQS T03350231
K6R3 262135Z AUTO 21007KT 150V240 10SM VCTS BKN050 BKN065 36/23 A3004 RMK AO2 LTG DSNT S T03610233
K6R3 262115Z AUTO 29003KT 10SM SCT050 36/22 A3004 RMK AO2 LTG DSNT SE AND S T03560223
K6R3 262055Z AUTO 17005KT 7SM SCT050 SCT120 35/23 A3005 RMK AO2 LTG DSNT SW T03540228
K6R3 262035Z AUTO 21004KT 10SM SCT050 SCT120 33/22 A3006 RMK AO2 T03330223
K6R3 262015Z AUTO 15005KT 7SM SCT050 35/23 A3006 RMK AO2 LTG DSNT S T03530233
K6R3 261955Z AUTO 19009KT 7SM CLR 35/22 A3007 RMK AO2 T03460224
K6R3 261935Z AUTO 17004KT 10SM SCT050 35/23 A3008 RMK AO2 T03470225
K6R3 261915Z AUTO 18008KT 7SM SCT050 35/23 A3008 RMK AO2 T03460226
K6R3 261855Z AUTO 19005KT 7SM SCT050 SCT055 33/23 A3010 RMK AO2 LTG DSNT E T03280227
K6R3 261835Z AUTO 17008KT 10SM SCT048 34/23 A3010 RMK AO2 T03410230
K6R3 261815Z AUTO 17006KT 7SM SCT046 35/23 A3010 RMK AO2 T03460232
K6R3 261755Z AUTO 17005KT 7SM SCT044 34/23 A3010 RMK AO2 T03390229 10340 20237
K6R3 261735Z AUTO 19007KT 7SM SCT042 34/23 A3011 RMK AO2 T03370226
K6R3 261715Z AUTO 19006KT 7SM SCT037 34/23 A3011 RMK AO2 T03360229
K6R3 261655Z AUTO 26005KT 10SM SCT037 SCT043 33/23 A3012 RMK AO2 T03300229